Flight Track Log - Related Links

Times and Time Zones

All times are in EDT time to prevent confusion due to time zone crossing. See the CHQ6096 flight status page for this flight to view local times or setup timezone preferences in your user account.

Time Position Orientation Groundspeed Altitude Reporting Facility
EDT Latitude Longitude Course Direction KTS MPH feet Rate Location/Type
Fri 10:55:47 PM 40.7667 -73.8333 264° West 161 185 1,400  Level New York TRACON
Fri 10:56:47 PM 40.7833 -73.7833 66° East 191 220 3,400 2,000 Climbing New York TRACON
Fri 10:57:47 PM 40.8333 -73.7667 14° North 252 290 5,400 2,400 Climbing New York TRACON
Fri 10:58:47 PM 40.8500 -73.8500 285° West 257 296 8,200 2,650 Climbing New York TRACON
Fri 10:59:00 PM 40.7418 -74.3153 264° West  Level FlightAware Approximate
Fri 10:59:47 PM 40.8500 -73.9500 270° West 266 306 10,700  Level New York TRACON
Fri 11:00:00 PM 40.7324 -74.4286 264° West  Level FlightAware Approximate
Fri 11:00:47 PM 40.8333 -74.0500 258° West 300 345 12,300  Level New York TRACON
Fri 11:01:47 PM 40.8000 -74.1667 249° West 334 384 13,500 1,200 Climbing New York TRACON
Fri 11:02:47 PM 40.7500 -74.2667 237° Southwest 376 433 14,700 910 Climbing New York TRACON
Fri 11:05:18 PM 40.7139 -74.6094 262° West 371 427 16,700 861 Climbing New York Center
Fri 11:06:16 PM 40.7072 -74.7458 266° West 376 433 17,700 650 Climbing New York Center
Fri 11:07:18 PM 40.6992 -74.8578 265° West 376 433 18,000 700 Climbing New York Center
Fri 11:08:16 PM 40.6608 -75.0031 251° West 386 444 19,100 1,008 Climbing New York Center
Fri 11:09:17 PM 40.6106 -75.1258 242° Southwest 381 438 20,000 950 Climbing New York Center
Fri 11:10:16 PM 40.5575 -75.2564 242° Southwest 393 452 21,000 950 Climbing New York Center
Fri 11:11:17 PM 40.5050 -75.3783 241° Southwest 393 452 21,900 942 Climbing New York Center
Fri 11:12:17 PM 40.4539 -75.5086 243° Southwest 400 460 22,900 942 Climbing New York Center
Fri 11:13:18 PM 40.4011 -75.6331 241° Southwest 400 460 23,800 942 Climbing New York Center
Fri 11:14:18 PM 40.3522 -75.7550 242° Southwest 400 460 24,800 966 Climbing New York Center
Fri 11:15:16 PM 40.2989 -75.8792 241° Southwest 394 453 25,700 966 Climbing New York Center
Fri 11:16:16 PM 40.2436 -75.9975 239° Southwest 394 453 26,700 1,000 Climbing New York Center
Fri 11:17:16 PM 40.1925 -76.1186 241° Southwest 384 442 27,700 934 Climbing New York Center
Fri 11:18:18 PM 40.1433 -76.2369 242° Southwest 384 442 28,600 885 Climbing New York Center
Fri 11:19:18 PM 40.0897 -76.3522 239° Southwest 379 436 29,500 966 Climbing New York Center
Fri 11:20:16 PM 40.0386 -76.4675 240° Southwest 379 436 30,500 1,005 Climbing New York Center
Fri 11:22:29 PM 39.9167 -76.7275 239° Southwest 381 438 32,700 969 Climbing Washington Center
Fri 11:23:28 PM 39.8633 -76.8431 239° Southwest 381 438 33,600 645 Climbing Washington Center
Fri 11:24:30 PM 39.8081 -76.9556 237° Southwest 381 438 34,000 198 Climbing Washington Center
Fri 11:25:29 PM 39.7547 -77.0706 239° Southwest 381 438 34,000  Level Washington Center
Fri 11:26:29 PM 39.6989 -77.1881 238° Southwest 381 438 34,000  Level Washington Center
Fri 11:27:29 PM 39.6453 -77.3000 238° Southwest 381 438 34,000  Level Washington Center
Fri 11:28:30 PM 39.5914 -77.4172 239° Southwest 381 438 34,000  Level Washington Center
Fri 11:29:30 PM 39.5356 -77.5317 238° Southwest 381 438 34,000  Level Washington Center
Fri 11:30:29 PM 39.4794 -77.6458 238° Southwest 381 438 34,000  Level Washington Center
Fri 11:31:29 PM 39.4275 -77.7625 240° Southwest 381 438 34,000  Level Washington Center
Fri 11:32:29 PM 39.3731 -77.8789 239° Southwest 381 438 34,000  Level Washington Center
Fri 11:33:29 PM 39.3250 -78.0008 243° Southwest 381 438 34,000  Level Washington Center
Fri 11:34:28 PM 39.2767 -78.1200 242° Southwest 381 438 34,000  Level Washington Center
Fri 11:35:30 PM 39.2303 -78.2417 244° Southwest 381 438 34,000  Level Washington Center
Fri 11:36:31 PM 39.1817 -78.3603 242° Southwest 381 438 34,000  Level Washington Center
Fri 11:37:31 PM 39.1308 -78.4869 243° Southwest 381 438 34,000  Level Washington Center
Fri 11:38:30 PM 39.0864 -78.6028 244° Southwest 371 427 34,000  Level Washington Center
Fri 11:39:30 PM 39.0397 -78.7131 241° Southwest 366 421 34,000  Level Washington Center
Fri 11:40:31 PM 38.9928 -78.8286 242° Southwest 360 414 34,000  Level Washington Center
Fri 11:41:28 PM 38.9564 -78.9444 248° West 360 414 34,000  Level Washington Center
Fri 11:42:31 PM 38.9386 -79.0531 258° West 354 407 34,000  Level Washington Center
Fri 11:43:29 PM 38.9206 -79.1750 259° West 343 395 34,000  Level Washington Center
Fri 11:44:30 PM 38.9022 -79.2994 259° West 354 407 34,000  Level Washington Center
Fri 11:45:29 PM 38.8817 -79.4211 258° West 354 407 34,000  Level Washington Center
Fri 11:46:30 PM 38.8631 -79.5428 259° West 354 407 34,000  Level Washington Center
Fri 11:47:29 PM 38.8442 -79.6725 259° West 365 420 34,000  Level Washington Center
Fri 11:48:28 PM 38.8228 -79.8072 259° West 365 420 34,000  Level Washington Center
Fri 11:49:28 PM 38.8019 -79.9283 258° West 360 414 34,000  Level Washington Center
Fri 11:50:59 PM 38.7725 -80.0917 257° West 357 411 34,000  Level Indianapolis Center
Fri 11:52:00 PM 38.7528 -80.2156 258° West 355 409 34,000  Level Indianapolis Center
Fri 11:53:01 PM 38.7275 -80.3636 258° West 355 409 34,000  Level Indianapolis Center
Fri 11:54:01 PM 38.7081 -80.4864 259° West 352 405 34,000  Level Indianapolis Center
Fri 11:55:02 PM 38.6872 -80.6106 258° West 357 411 34,000  Level Indianapolis Center
Fri 11:56:03 PM 38.6664 -80.7336 258° West 353 406 34,000  Level Indianapolis Center
Fri 11:57:04 PM 38.6450 -80.8578 258° West 358 412 34,000  Level Indianapolis Center
Fri 11:58:04 PM 38.6242 -80.9806 258° West 355 409 34,000  Level Indianapolis Center
Fri 11:59:05 PM 38.6017 -81.1042 257° West 355 409 34,000  Level Indianapolis Center
Sat 12:00:06 AM 38.5808 -81.2286 258° West 356 410 34,000  Level Indianapolis Center
Sat 12:01:06 AM 38.5586 -81.3539 257° West 357 411 34,000  Level Indianapolis Center
Sat 12:02:07 AM 38.5367 -81.4806 258° West 358 412 34,000  Level Indianapolis Center
Sat 12:03:08 AM 38.5147 -81.6069 258° West 358 412 34,000  Level Indianapolis Center
Sat 12:04:08 AM 38.4928 -81.7319 257° West 357 411 34,000  Level Indianapolis Center
Sat 12:05:09 AM 38.4697 -81.8558 257° West 357 411 34,000  Level Indianapolis Center
Sat 12:06:10 AM 38.4472 -81.9806 257° West 359 413 34,000 -446 Level Indianapolis Center
Sat 12:07:10 AM 38.4253 -82.1044 257° West 357 411 33,100 -1,488 Descending Indianapolis Center
Sat 12:08:11 AM 38.4019 -82.2281 256° West 358 412 31,000 -2,016 Descending Indianapolis Center
Sat 12:09:12 AM 38.3797 -82.3503 257° West 354 407 29,000 -1,983 Descending Indianapolis Center
Sat 12:10:12 AM 38.3569 -82.4750 257° West 359 413 27,000 -2,033 Descending Indianapolis Center
Sat 12:11:13 AM 38.3314 -82.6081 256° West 367 422 24,900 -1,488 Descending Indianapolis Center
Sat 12:12:13 AM 38.3061 -82.7417 256° West 384 442 24,000 -446 Descending Indianapolis Center
Sat 12:13:14 AM 38.2814 -82.8775 257° West 393 452 24,000  Level Indianapolis Center
Sat 12:14:14 AM 38.2544 -83.0150 256° West 400 460 24,000  Level Indianapolis Center
Sat 12:15:15 AM 38.2278 -83.1553 256° West 408 470 24,000 -689 Level Indianapolis Center
Sat 12:16:16 AM 38.2017 -83.2922 256° West 402 463 22,600 -1,686 Descending Indianapolis Center
Sat 12:17:16 AM 38.1750 -83.4272 256° West 396 456 20,600 -2,182 Descending Indianapolis Center
Sat 12:18:17 AM 38.1483 -83.5619 256° West 393 452 18,200 -2,430 Descending Indianapolis Center
Sat 12:19:17 AM 38.1239 -83.6856 256° West 370 426 15,700 -2,727 Descending Indianapolis Center
Sat 12:20:18 AM 38.1011 -83.8014 256° West 345 397 12,700 -2,579 Descending Indianapolis Center
Sat 12:21:18 AM 38.0808 -83.9133 257° West 329 379 10,500 -1,835 Descending Indianapolis Center
Sat 12:22:19 AM 38.0878 -84.0139 275° West 287 330 9,000 -1,587 Descending Indianapolis Center
Sat 12:23:19 AM 38.0953 -84.1078 276° West 271 312 7,300 -1,438 Descending Indianapolis Center
Sat 12:24:20 AM 38.1019 -84.1983 275° West 260 299 6,100 -1,190 Descending Indianapolis Center
Sat 12:25:20 AM 38.1083 -84.2839 275° West 250 288 4,900 -1,190 Descending Indianapolis Center
Sat 12:26:21 AM 38.1133 -84.3694 274° West 245 282 3,700 -843 Descending Indianapolis Center
Sat 12:27:21 AM 38.1094 -84.4511 267° West 238 274 3,200 -397 Descending Indianapolis Center
Sat 12:28:22 AM 38.1039 -84.5239 264° West 222 255 2,900 -295 Descending Indianapolis Center

Login

Don't have an account? Register now (free) for customized features, flight alerts, and more!